Weather at Base Paramoteurs d' Avernes

Public forecast

Using degrees Celsius for public forecast. Weather courtesy of forecast.io.

Closest aviation weather report (METAR) to Base Paramoteurs d' Avernes

Closest report is Aérodrome de Pontoise - Cormeilles en Vexin, 6.4 nm (11.8 km) E.

2022/12/03 13:00 (retrieved 14 minutes ago)

LFPT 031300Z AUTO 06009KT 9999 OVC016 03/01 Q1016

Closest aviation forecast (TAF) to Base Paramoteurs d' Avernes

Closest forecast is Paris Beauvais Tillé Airport, 22.9 nm (42.3 km) NNE.

2022/12/03 12:48 (retrieved 26 minutes ago)

TAF LFOB 031100Z 0312/0412 06010KT 9999 OVC013 TEMPO 0319/0412 3000 BR OVC004